createdAt,value
2018-09-30T00:02:11.409Z,56.89
2018-09-30T00:04:39.604Z,57.41
2018-09-30T00:07:07.827Z,56.35
2018-09-30T00:09:36.052Z,55.76
2018-09-30T00:12:04.249Z,55.14
2018-09-30T00:14:32.442Z,56.28
2018-09-30T00:17:00.632Z,56.55
2018-09-30T00:19:28.856Z,56.84
2018-09-30T00:21:57.005Z,57.02
2018-09-30T00:24:30.464Z,56.68
2018-09-30T00:27:00.071Z,56.61
2018-09-30T00:29:29.571Z,57.14
2018-09-30T00:31:58.512Z,57.41
2018-09-30T00:34:27.977Z,57.91
2018-09-30T00:36:59.261Z,58.16
2018-09-30T00:39:27.913Z,58.13
2018-09-30T00:41:56.162Z,58.19
2018-09-30T00:44:24.672Z,58.09
2018-09-30T00:46:53.327Z,58.51
2018-09-30T00:49:21.537Z,58.71
2018-09-30T00:51:49.747Z,59.24
2018-09-30T00:54:17.947Z,58.98
2018-09-30T00:56:46.159Z,58.57
2018-09-30T00:59:14.438Z,58.11
2018-09-30T01:01:42.692Z,57.89
2018-09-30T01:04:10.928Z,58.67
2018-09-30T01:06:39.132Z,59.17
2018-09-30T01:09:10.860Z,59.47
2018-09-30T01:11:39.051Z,60.11
2018-09-30T01:14:07.516Z,59.05
2018-09-30T01:16:35.852Z,59.44
2018-09-30T01:19:04.035Z,59.09
2018-09-30T01:21:32.292Z,58.71
2018-09-30T01:24:00.493Z,58.51
2018-09-30T01:26:28.703Z,58.78
2018-09-30T01:28:56.923Z,59.11
2018-09-30T01:31:25.307Z,59.68
2018-09-30T01:33:54.698Z,59.58
2018-09-30T01:36:22.892Z,59.59
2018-09-30T01:38:51.083Z,59.83
2018-09-30T01:41:19.298Z,60.28
2018-09-30T01:43:47.514Z,60.32
2018-09-30T01:46:15.692Z,60.34
2018-09-30T01:48:43.883Z,60.34
2018-09-30T01:51:12.114Z,60.56
2018-09-30T01:53:40.318Z,60.77
2018-09-30T01:56:08.571Z,61.10
2018-09-30T01:58:36.771Z,61.27
2018-09-30T02:01:04.946Z,61.41
2018-09-30T02:03:33.152Z,61.54
2018-09-30T02:06:01.339Z,61.80
2018-09-30T02:08:29.535Z,61.44
2018-09-30T02:10:57.732Z,61.62
2018-09-30T02:13:25.922Z,62.41
2018-09-30T02:15:54.107Z,62.84
2018-09-30T02:18:22.287Z,63.35
2018-09-30T02:20:50.483Z,63.78
2018-09-30T02:23:18.665Z,63.89
2018-09-30T02:25:46.866Z,63.93
2018-09-30T02:28:15.047Z,64.02
2018-09-30T02:30:43.238Z,63.78
2018-09-30T02:33:11.436Z,63.85
2018-09-30T02:35:39.630Z,64.85
2018-09-30T02:38:07.846Z,64.73
2018-09-30T02:40:36.064Z,64.82
2018-09-30T02:43:04.252Z,64.70
2018-09-30T02:45:32.445Z,65.24
2018-09-30T02:48:00.631Z,65.34
2018-09-30T02:50:28.816Z,65.61
2018-09-30T02:52:57.173Z,65.27
2018-09-30T02:55:25.381Z,65.38
2018-09-30T02:57:53.563Z,65.77
2018-09-30T03:00:21.759Z,65.66
2018-09-30T03:02:49.953Z,65.98
2018-09-30T03:05:18.192Z,66.17
2018-09-30T03:07:51.724Z,66.58
2018-09-30T03:10:19.895Z,66.67
2018-09-30T03:12:48.104Z,66.95
2018-09-30T03:15:16.279Z,67.34
2018-09-30T03:17:44.513Z,67.46
2018-09-30T03:20:12.687Z,67.28
2018-09-30T03:22:40.884Z,67.49
2018-09-30T03:25:09.080Z,67.44
2018-09-30T03:27:37.281Z,67.51
2018-09-30T03:30:05.460Z,67.52
2018-09-30T03:32:33.650Z,67.76
2018-09-30T03:35:01.838Z,67.63
2018-09-30T03:37:30.012Z,67.30
2018-09-30T03:39:58.232Z,67.18
2018-09-30T03:42:26.399Z,67.27
2018-09-30T03:44:54.643Z,66.91
2018-09-30T03:47:22.827Z,66.62
2018-09-30T03:49:51.028Z,66.64
2018-09-30T03:52:19.210Z,66.77
2018-09-30T03:54:47.380Z,66.69
2018-09-30T03:57:15.563Z,66.92
2018-09-30T03:59:43.755Z,67.06
2018-09-30T04:02:11.946Z,67.22
2018-09-30T04:04:40.136Z,66.99
2018-09-30T04:07:08.335Z,66.96
2018-09-30T04:09:36.543Z,67.26
2018-09-30T04:12:04.696Z,66.96
2018-09-30T04:14:32.884Z,67.24
2018-09-30T04:17:01.166Z,67.01
2018-09-30T04:19:29.268Z,67.18
2018-09-30T04:21:57.516Z,67.44
2018-09-30T04:24:25.791Z,67.25
2018-09-30T04:26:53.975Z,67.85
2018-09-30T04:29:22.151Z,67.79
2018-09-30T04:31:50.328Z,67.51
2018-09-30T04:34:18.584Z,67.84
2018-09-30T04:36:46.785Z,67.82
2018-09-30T04:39:15.008Z,68.21
2018-09-30T04:41:43.322Z,68.49
2018-09-30T04:44:11.516Z,68.23
2018-09-30T04:46:39.707Z,68.37
2018-09-30T04:49:07.966Z,68.62
2018-09-30T04:51:36.171Z,68.96
2018-09-30T04:54:04.534Z,68.53
2018-09-30T04:56:32.766Z,68.38
2018-09-30T04:59:00.966Z,68.54
2018-09-30T05:01:29.158Z,68.80
2018-09-30T05:03:57.464Z,68.60
2018-09-30T05:06:25.640Z,68.61
2018-09-30T05:08:53.845Z,68.37
2018-09-30T05:11:22.031Z,68.25
2018-09-30T05:13:50.218Z,68.22
2018-09-30T05:16:18.445Z,67.96
2018-09-30T05:18:46.647Z,68.17
2018-09-30T05:21:14.831Z,67.77
2018-09-30T05:23:43.028Z,67.82
2018-09-30T05:26:11.224Z,67.81
2018-09-30T05:28:39.408Z,67.75
2018-09-30T05:31:07.747Z,67.58
2018-09-30T05:33:35.997Z,67.92
2018-09-30T05:36:04.192Z,67.74
2018-09-30T05:38:32.372Z,67.68
2018-09-30T05:41:00.698Z,67.87
2018-09-30T05:43:29.864Z,67.42
2018-09-30T05:45:58.688Z,68.09
2018-09-30T05:48:27.009Z,68.67
2018-09-30T05:50:55.198Z,68.45
2018-09-30T05:53:23.419Z,68.35
2018-09-30T05:55:51.602Z,68.43
2018-09-30T05:58:19.885Z,68.06
2018-09-30T06:00:48.067Z,68.41
2018-09-30T06:03:16.323Z,68.47
2018-09-30T06:05:44.554Z,68.73
2018-09-30T06:08:12.755Z,68.17
2018-09-30T06:10:40.950Z,68.82
2018-09-30T06:13:09.183Z,69.42
2018-09-30T06:15:37.577Z,69.41
2018-09-30T06:18:05.762Z,68.51
2018-09-30T06:20:33.978Z,68.56
2018-09-30T06:23:02.171Z,68.96
2018-09-30T06:25:30.608Z,68.99
2018-09-30T06:27:58.888Z,68.97
2018-09-30T06:30:27.091Z,68.97
2018-09-30T06:32:55.287Z,69.05
2018-09-30T06:35:23.464Z,69.08
2018-09-30T06:37:51.682Z,69.31
2018-09-30T06:40:19.898Z,69.51
2018-09-30T06:42:48.057Z,69.49
2018-09-30T06:45:16.317Z,69.81
2018-09-30T06:47:44.566Z,69.43
2018-09-30T06:50:12.746Z,69.39
2018-09-30T06:52:40.935Z,69.74
2018-09-30T06:55:09.132Z,69.43
2018-09-30T06:57:37.317Z,69.47
2018-09-30T07:00:05.493Z,69.66
2018-09-30T07:02:33.674Z,69.59
2018-09-30T07:05:01.939Z,69.60
2018-09-30T07:07:30.044Z,69.87
2018-09-30T07:09:58.223Z,69.63
2018-09-30T07:12:26.474Z,69.77
2018-09-30T07:14:54.655Z,69.71
2018-09-30T07:17:22.970Z,69.68
2018-09-30T07:19:51.159Z,69.80
2018-09-30T07:22:19.388Z,69.42
2018-09-30T07:24:47.562Z,69.68
2018-09-30T07:27:15.726Z,70.04
2018-09-30T07:29:43.919Z,69.92
2018-09-30T07:32:12.318Z,69.77
2018-09-30T07:34:40.506Z,69.47
2018-09-30T07:37:08.695Z,69.25
2018-09-30T07:39:37.444Z,68.31
2018-09-30T07:42:05.812Z,67.18
2018-09-30T07:44:34.051Z,66.81
2018-09-30T07:47:02.284Z,65.76
2018-09-30T07:49:30.772Z,64.55
2018-09-30T07:51:59.020Z,62.90
2018-09-30T07:54:27.241Z,61.70
2018-09-30T07:56:55.434Z,59.91
2018-09-30T07:59:23.635Z,59.89
2018-09-30T08:01:52.650Z,59.76
2018-09-30T08:04:20.871Z,60.59
2018-09-30T08:06:49.076Z,60.17
2018-09-30T08:09:17.330Z,58.49
2018-09-30T08:11:45.553Z,58.43
2018-09-30T08:14:13.766Z,59.15
2018-09-30T08:16:42.006Z,59.22
2018-09-30T08:19:10.166Z,59.01
2018-09-30T08:21:38.375Z,56.52
2018-09-30T08:24:06.640Z,56.17
2018-09-30T08:26:34.876Z,55.98
2018-09-30T08:29:03.199Z,56.05
2018-09-30T08:31:31.443Z,54.81
2018-09-30T08:34:00.508Z,55.17
2018-09-30T08:36:29.363Z,54.20
2018-09-30T08:38:59.945Z,53.26
2018-09-30T08:41:28.132Z,53.34
2018-09-30T08:43:59.407Z,52.18
2018-09-30T08:46:27.510Z,51.71
2018-09-30T08:48:55.992Z,51.34
2018-09-30T08:51:24.176Z,51.85
2018-09-30T08:53:53.115Z,49.80
2018-09-30T08:56:21.424Z,50.10
2018-09-30T08:58:49.627Z,49.81
2018-09-30T09:01:17.796Z,49.01
2018-09-30T09:03:46.122Z,48.58
2018-09-30T09:06:14.303Z,47.89
2018-09-30T09:08:42.463Z,47.65
2018-09-30T09:11:10.660Z,47.14
2018-09-30T09:13:38.839Z,46.35
2018-09-30T09:16:09.208Z,46.19
2018-09-30T09:18:37.380Z,44.59
2018-09-30T09:21:06.522Z,43.64
2018-09-30T09:23:34.723Z,42.78
2018-09-30T09:26:03.276Z,41.78
2018-09-30T09:28:31.456Z,42.84
2018-09-30T09:31:00.767Z,42.20
2018-09-30T09:33:28.991Z,40.57
2018-09-30T09:35:57.180Z,40.09
2018-09-30T09:38:25.393Z,39.24
2018-09-30T09:40:54.459Z,38.85
2018-09-30T09:43:22.790Z,37.67
2018-09-30T09:45:50.988Z,36.51
2018-09-30T09:48:20.339Z,35.95
2018-09-30T09:50:50.502Z,35.70
2018-09-30T09:53:18.667Z,36.17
2018-09-30T09:55:46.841Z,35.45
2018-09-30T09:58:15.028Z,35.35
2018-09-30T10:00:43.482Z,37.07
2018-09-30T10:03:12.087Z,36.47
2018-09-30T10:05:40.259Z,34.26
2018-09-30T10:08:08.593Z,35.11
2018-09-30T10:10:37.070Z,33.57
2018-09-30T10:13:05.271Z,33.50
2018-09-30T10:15:33.431Z,34.26
2018-09-30T10:18:01.624Z,33.33
2018-09-30T10:20:29.894Z,32.32
2018-09-30T10:22:58.110Z,31.60
2018-09-30T10:25:26.304Z,31.76
2018-09-30T10:27:54.591Z,32.10
2018-09-30T10:30:22.767Z,31.67
2018-09-30T10:32:50.963Z,32.16
2018-09-30T10:35:19.140Z,32.39
2018-09-30T10:37:47.363Z,31.47
2018-09-30T10:40:15.580Z,31.26
2018-09-30T10:42:43.785Z,31.89
2018-09-30T10:45:13.075Z,31.52
2018-09-30T10:47:41.242Z,31.81
2018-09-30T10:50:09.536Z,30.62
2018-09-30T10:52:37.695Z,29.86
2018-09-30T10:55:05.917Z,30.92
2018-09-30T10:57:34.140Z,29.73
2018-09-30T11:00:02.584Z,30.83
2018-09-30T11:02:30.776Z,29.76
2018-09-30T11:04:58.971Z,30.43
2018-09-30T11:07:27.850Z,31.69
2018-09-30T11:09:56.034Z,30.59
2018-09-30T11:12:24.677Z,30.07
2018-09-30T11:14:53.103Z,29.64
2018-09-30T11:17:21.372Z,30.18
2018-09-30T11:19:49.562Z,30.10
2018-09-30T11:22:17.836Z,31.70
2018-09-30T11:24:46.095Z,29.52
2018-09-30T11:27:14.339Z,29.88
2018-09-30T11:29:42.683Z,29.99
2018-09-30T11:32:10.991Z,31.09
2018-09-30T11:34:39.403Z,30.93
2018-09-30T11:37:07.678Z,30.29
2018-09-30T11:39:36.025Z,31.03
2018-09-30T11:42:04.355Z,30.14
2018-09-30T11:44:32.674Z,30.92
2018-09-30T11:47:01.126Z,30.63
2018-09-30T11:49:31.102Z,29.48
2018-09-30T11:52:00.375Z,29.97
2018-09-30T11:54:28.559Z,30.01
2018-09-30T11:56:56.779Z,30.52
2018-09-30T11:59:24.959Z,29.65
2018-09-30T12:01:53.163Z,29.96
2018-09-30T12:04:21.416Z,28.73
2018-09-30T12:06:49.619Z,30.20
2018-09-30T12:09:17.875Z,29.91
2018-09-30T12:11:46.070Z,30.78
2018-09-30T12:14:14.296Z,30.99
2018-09-30T12:16:42.510Z,31.82
2018-09-30T12:19:10.719Z,30.59
2018-09-30T12:21:39.192Z,29.89
2018-09-30T12:24:07.446Z,29.52
2018-09-30T12:26:35.894Z,30.37
2018-09-30T12:29:04.337Z,31.26
2018-09-30T12:31:32.535Z,30.77
2018-09-30T12:34:06.700Z,30.88
2018-09-30T12:36:34.985Z,31.52
2018-09-30T12:39:05.541Z,31.47
2018-09-30T12:41:33.728Z,31.30
2018-09-30T12:44:01.932Z,30.92
2018-09-30T12:46:30.145Z,31.08
2018-09-30T12:48:58.378Z,30.13
2018-09-30T12:51:26.690Z,30.12
2018-09-30T12:53:54.884Z,30.60
2018-09-30T12:56:23.216Z,31.95
2018-09-30T12:58:51.420Z,31.51
2018-09-30T13:01:19.655Z,31.17
2018-09-30T13:03:47.850Z,30.35
2018-09-30T13:06:16.114Z,30.24
2018-09-30T13:08:44.334Z,30.75
2018-09-30T13:11:12.532Z,30.80
2018-09-30T13:13:40.871Z,30.98
2018-09-30T13:16:10.187Z,30.98
2018-09-30T13:18:38.379Z,30.96
2018-09-30T13:21:07.336Z,31.80
2018-09-30T13:23:35.775Z,30.71
2018-09-30T13:26:04.319Z,31.32
2018-09-30T13:28:32.510Z,31.31
2018-09-30T13:31:01.266Z,31.89
2018-09-30T13:33:29.688Z,32.40
2018-09-30T13:35:58.115Z,33.19
2018-09-30T13:38:27.768Z,32.88
2018-09-30T13:40:56.569Z,33.21
2018-09-30T13:43:24.847Z,32.88
2018-09-30T13:45:54.280Z,33.73
2018-09-30T13:48:22.535Z,32.72
2018-09-30T13:50:51.155Z,33.34
2018-09-30T13:53:20.092Z,32.44
2018-09-30T13:55:49.451Z,32.73
2018-09-30T13:58:17.812Z,33.50
2018-09-30T14:00:46.007Z,33.33
2018-09-30T14:03:14.284Z,33.67
2018-09-30T14:05:42.484Z,32.79
2018-09-30T14:08:10.675Z,33.59
2018-09-30T14:10:39.207Z,33.56
2018-09-30T14:13:08.227Z,33.55
2018-09-30T14:15:36.419Z,34.48
2018-09-30T14:18:04.595Z,34.58
2018-09-30T14:20:32.852Z,34.34
2018-09-30T14:23:01.113Z,35.16
2018-09-30T14:25:30.715Z,34.91
2018-09-30T14:27:59.625Z,34.71
2018-09-30T14:30:27.900Z,34.88
2018-09-30T14:32:57.315Z,35.13
2018-09-30T14:35:25.534Z,35.44
2018-09-30T14:37:54.431Z,35.06
2018-09-30T14:40:22.742Z,36.27
2018-09-30T14:42:52.221Z,34.92
2018-09-30T14:45:20.495Z,34.61
2018-09-30T14:47:48.783Z,33.72
2018-09-30T14:50:18.232Z,34.74
2018-09-30T14:52:47.830Z,35.50
2018-09-30T14:55:16.313Z,34.89
2018-09-30T14:57:44.515Z,34.44
2018-09-30T15:00:12.757Z,34.58
2018-09-30T15:02:41.537Z,35.34
2018-09-30T15:05:09.719Z,34.91
2018-09-30T15:07:38.023Z,34.93
2018-09-30T15:10:06.248Z,35.20
2018-09-30T15:12:37.307Z,35.61
2018-09-30T15:15:07.295Z,36.02
2018-09-30T15:17:35.627Z,36.14
2018-09-30T15:20:04.083Z,34.72
2018-09-30T15:22:32.371Z,35.45
2018-09-30T15:25:00.839Z,35.41
2018-09-30T15:27:29.504Z,35.45
2018-09-30T15:29:57.670Z,35.57
2018-09-30T15:32:25.935Z,36.01
2018-09-30T15:34:54.106Z,36.17
2018-09-30T15:37:22.543Z,35.98
2018-09-30T15:39:50.726Z,35.40
2018-09-30T15:42:19.066Z,35.40
2018-09-30T15:44:47.256Z,36.13
2018-09-30T15:47:15.583Z,36.19
2018-09-30T15:49:44.095Z,35.87
2018-09-30T15:52:12.362Z,35.89
2018-09-30T15:54:41.275Z,36.76
2018-09-30T15:57:09.786Z,36.04
2018-09-30T15:59:38.135Z,35.57
2018-09-30T16:02:07.348Z,35.61
2018-09-30T16:04:35.864Z,35.13
2018-09-30T16:07:04.901Z,35.26
2018-09-30T16:09:33.116Z,35.97
2018-09-30T16:12:01.411Z,36.37
2018-09-30T16:14:29.664Z,35.35
2018-09-30T16:16:57.960Z,36.21
2018-09-30T16:19:27.121Z,35.81
2018-09-30T16:21:55.484Z,36.04
2018-09-30T16:24:23.780Z,36.29
2018-09-30T16:26:52.539Z,37.10
2018-09-30T16:29:22.326Z,37.19
2018-09-30T16:31:50.885Z,38.13
2018-09-30T16:34:19.686Z,39.36
2018-09-30T16:36:49.443Z,38.19
2018-09-30T16:39:17.858Z,37.35
2018-09-30T16:41:46.343Z,37.79
2018-09-30T16:44:16.300Z,38.58
2018-09-30T16:46:45.189Z,37.89
2018-09-30T16:49:13.568Z,39.79
2018-09-30T16:51:42.435Z,38.56
2018-09-30T16:54:10.914Z,39.65
2018-09-30T16:56:39.247Z,39.19
2018-09-30T16:59:07.452Z,40.49
2018-09-30T17:01:37.748Z,40.63
2018-09-30T17:04:06.173Z,40.43
2018-09-30T17:06:35.367Z,41.71
2018-09-30T17:09:05.571Z,41.73
2018-09-30T17:11:34.027Z,42.67
2018-09-30T17:14:04.282Z,43.51
2018-09-30T17:16:32.710Z,43.94
2018-09-30T17:19:01.672Z,42.99
2018-09-30T17:21:30.559Z,43.16
2018-09-30T17:23:58.855Z,43.23
2018-09-30T17:26:27.232Z,43.67
2018-09-30T17:28:57.554Z,43.39
2018-09-30T17:31:26.575Z,43.89
2018-09-30T17:33:54.809Z,44.39
2018-09-30T17:36:22.987Z,44.58
2018-09-30T17:38:51.189Z,43.89
2018-09-30T17:41:19.387Z,44.99
2018-09-30T17:43:47.571Z,45.91
2018-09-30T17:46:15.747Z,46.53
2018-09-30T17:48:43.933Z,46.21
2018-09-30T17:51:12.134Z,46.91
2018-09-30T17:53:40.518Z,47.55
2018-09-30T17:56:08.888Z,47.93
2018-09-30T17:58:37.196Z,48.10
2018-09-30T18:01:05.403Z,48.51
2018-09-30T18:03:33.820Z,48.61
2018-09-30T18:06:02.031Z,49.01
2018-09-30T18:08:30.311Z,48.82
2018-09-30T18:10:59.259Z,49.33
2018-09-30T18:13:29.585Z,48.98
2018-09-30T18:15:57.908Z,49.37
2018-09-30T18:18:26.117Z,49.11
2018-09-30T18:20:54.443Z,48.84
2018-09-30T18:23:22.707Z,48.72
2018-09-30T18:25:52.098Z,48.79
2018-09-30T18:28:20.984Z,48.66
2018-09-30T18:30:50.337Z,49.03
2018-09-30T18:33:18.716Z,49.45
2018-09-30T18:35:46.890Z,50.16
2018-09-30T18:38:15.108Z,50.81
2018-09-30T18:40:48.210Z,51.11
2018-09-30T18:43:16.454Z,51.44
2018-09-30T18:45:45.147Z,51.61
2018-09-30T18:48:13.397Z,51.99
2018-09-30T18:50:42.110Z,52.27
2018-09-30T18:53:10.307Z,52.58
2018-09-30T18:55:38.490Z,52.82
2018-09-30T18:58:06.712Z,52.77
2018-09-30T19:00:35.038Z,52.52
2018-09-30T19:03:03.390Z,53.09
2018-09-30T19:05:31.642Z,53.29
2018-09-30T19:08:01.355Z,53.54
2018-09-30T19:10:29.530Z,53.64
2018-09-30T19:12:59.266Z,53.83
2018-09-30T19:15:28.536Z,54.17
2018-09-30T19:17:56.998Z,54.22
2018-09-30T19:20:25.939Z,54.30
2018-09-30T19:22:54.432Z,54.40
2018-09-30T19:25:22.659Z,54.47
2018-09-30T19:27:51.494Z,54.88
2018-09-30T19:30:21.028Z,54.68
2018-09-30T19:32:49.300Z,54.78
2018-09-30T19:35:17.592Z,54.63
2018-09-30T19:37:46.861Z,54.69
2018-09-30T19:40:15.160Z,54.75
2018-09-30T19:42:45.982Z,55.38
2018-09-30T19:45:14.808Z,55.41
2018-09-30T19:47:43.676Z,55.67
2018-09-30T19:50:11.990Z,55.75
2018-09-30T19:52:40.556Z,55.72
2018-09-30T19:55:08.886Z,55.85
2018-09-30T19:57:37.158Z,56.00
2018-09-30T20:00:05.433Z,56.35
2018-09-30T20:02:33.775Z,56.41
2018-09-30T20:05:03.066Z,56.03
2018-09-30T20:07:31.878Z,56.23
2018-09-30T20:10:00.791Z,56.28
2018-09-30T20:12:30.167Z,56.69
2018-09-30T20:14:58.403Z,56.86
2018-09-30T20:17:26.935Z,56.33
2018-09-30T20:19:55.210Z,55.97
2018-09-30T20:22:23.406Z,56.00
2018-09-30T20:24:53.297Z,55.89
2018-09-30T20:27:21.987Z,55.45
2018-09-30T20:29:51.000Z,55.61
2018-09-30T20:32:19.203Z,55.85
2018-09-30T20:34:47.420Z,56.08
2018-09-30T20:37:15.648Z,55.86
2018-09-30T20:39:43.871Z,55.92
2018-09-30T20:42:12.079Z,55.56
2018-09-30T20:44:40.304Z,55.65
2018-09-30T20:47:08.521Z,56.06
2018-09-30T20:49:36.702Z,56.63
2018-09-30T20:52:04.915Z,57.07
2018-09-30T20:54:33.123Z,57.17
2018-09-30T20:57:01.477Z,57.42
2018-09-30T20:59:29.663Z,57.55
2018-09-30T21:01:57.876Z,57.43
2018-09-30T21:04:26.060Z,57.82
2018-09-30T21:06:54.260Z,58.02
2018-09-30T21:09:23.007Z,58.01
2018-09-30T21:11:51.240Z,57.88
2018-09-30T21:14:19.429Z,57.95
2018-09-30T21:16:47.623Z,57.82
2018-09-30T21:19:15.831Z,58.45
2018-09-30T21:21:44.018Z,58.55
2018-09-30T21:24:12.212Z,58.49
2018-09-30T21:26:40.423Z,59.06
2018-09-30T21:29:08.623Z,59.24
2018-09-30T21:31:36.936Z,59.51
2018-09-30T21:34:05.160Z,59.58
2018-09-30T21:36:33.359Z,59.77
2018-09-30T21:39:01.577Z,59.93
2018-09-30T21:41:29.774Z,59.99
2018-09-30T21:43:57.989Z,60.11
2018-09-30T21:46:26.207Z,60.33
2018-09-30T21:48:54.811Z,60.74
2018-09-30T21:51:22.831Z,59.90
2018-09-30T21:53:51.023Z,60.04
2018-09-30T21:56:19.231Z,59.98
2018-09-30T21:58:47.416Z,59.94
2018-09-30T22:01:15.891Z,59.87
2018-09-30T22:03:44.027Z,59.64
2018-09-30T22:06:12.226Z,59.89
2018-09-30T22:08:40.416Z,60.24
2018-09-30T22:11:08.608Z,60.16
2018-09-30T22:13:36.807Z,60.01
2018-09-30T22:16:05.011Z,60.11
2018-09-30T22:18:33.209Z,60.35
2018-09-30T22:21:01.412Z,60.75
2018-09-30T22:23:29.608Z,60.82
2018-09-30T22:25:57.922Z,60.90
2018-09-30T22:28:26.120Z,60.77
2018-09-30T22:30:54.348Z,60.92
2018-09-30T22:33:22.538Z,61.26
2018-09-30T22:35:50.731Z,61.43
2018-09-30T22:38:18.933Z,61.70
2018-09-30T22:40:47.135Z,61.88
2018-09-30T22:43:15.352Z,62.08
2018-09-30T22:45:43.552Z,62.17
2018-09-30T22:48:11.765Z,62.19
2018-09-30T22:50:39.971Z,62.51
2018-09-30T22:53:08.218Z,62.73
2018-09-30T22:55:36.367Z,62.71
2018-09-30T22:58:04.605Z,62.80
2018-09-30T23:00:32.784Z,63.28
2018-09-30T23:03:00.994Z,63.28
2018-09-30T23:05:29.182Z,63.39
2018-09-30T23:07:57.366Z,63.42
2018-09-30T23:10:25.587Z,63.08
2018-09-30T23:12:53.810Z,63.16
2018-09-30T23:15:22.020Z,63.12
2018-09-30T23:17:50.284Z,63.17
2018-09-30T23:20:19.092Z,63.24
2018-09-30T23:22:47.681Z,63.32
2018-09-30T23:25:15.939Z,63.73
2018-09-30T23:27:44.227Z,63.70
2018-09-30T23:30:12.613Z,63.99
2018-09-30T23:32:40.827Z,64.19
2018-09-30T23:35:09.052Z,63.78
2018-09-30T23:37:37.259Z,63.92
2018-09-30T23:40:05.816Z,64.01
2018-09-30T23:42:34.016Z,64.13
2018-09-30T23:45:02.256Z,64.14
2018-09-30T23:47:30.474Z,64.16
2018-09-30T23:49:58.816Z,64.39
2018-09-30T23:52:27.027Z,64.36
2018-09-30T23:54:55.235Z,64.48
2018-09-30T23:57:23.447Z,64.56
2018-09-30T23:59:51.636Z,64.74
